createdAt,value
2023-05-04T00:00:21.091Z,11.00
2023-05-04T00:02:48.914Z,10.91
2023-05-04T00:05:16.502Z,10.88
2023-05-04T00:07:44.298Z,10.84
2023-05-04T00:10:11.665Z,10.89
2023-05-04T00:12:40.712Z,10.98
2023-05-04T00:15:08.438Z,10.89
2023-05-04T00:17:35.914Z,10.92
2023-05-04T00:20:04.373Z,10.91
2023-05-04T00:22:32.824Z,10.80
2023-05-04T00:25:00.130Z,10.83
2023-05-04T00:27:27.819Z,10.90
2023-05-04T00:29:55.183Z,10.86
2023-05-04T00:32:22.633Z,10.73
2023-05-04T00:34:50.203Z,10.74
2023-05-04T00:37:17.590Z,10.71
2023-05-04T00:39:44.945Z,10.73
2023-05-04T00:42:12.354Z,10.64
2023-05-04T00:44:41.617Z,10.69
2023-05-04T00:47:09.614Z,10.65
2023-05-04T00:49:37.376Z,10.78
2023-05-04T00:52:05.961Z,10.82
2023-05-04T00:54:34.505Z,10.71
2023-05-04T00:57:03.559Z,10.65
2023-05-04T00:59:31.053Z,10.69
2023-05-04T01:01:58.474Z,10.72
2023-05-04T01:04:26.162Z,10.83
2023-05-04T01:07:14.829Z,10.71
2023-05-04T01:09:59.651Z,10.80
2023-05-04T01:12:44.823Z,10.75
2023-05-04T01:15:13.113Z,10.79
2023-05-04T01:17:40.745Z,10.92
2023-05-04T01:20:09.611Z,10.88
2023-05-04T01:22:38.842Z,10.97
2023-05-04T01:25:07.975Z,10.90
2023-05-04T01:27:46.495Z,10.83
2023-05-04T01:30:39.471Z,10.78
2023-05-04T01:33:07.395Z,10.76
2023-05-04T01:35:34.995Z,10.76
2023-05-04T01:38:03.124Z,10.82
2023-05-04T01:40:30.573Z,10.87
2023-05-04T01:42:57.993Z,10.79
2023-05-04T01:45:25.393Z,10.74
2023-05-04T01:47:52.882Z,10.68
2023-05-04T01:50:20.296Z,10.65
2023-05-04T01:52:47.617Z,10.73
2023-05-04T01:55:14.958Z,10.81
2023-05-04T01:57:42.465Z,10.70
2023-05-04T02:00:10.458Z,10.66
2023-05-04T02:02:38.112Z,10.68
2023-05-04T02:05:05.835Z,10.72
2023-05-04T02:07:34.300Z,10.65
2023-05-04T02:10:01.877Z,10.64
2023-05-04T02:12:29.650Z,10.56
2023-05-04T02:14:57.188Z,10.50
2023-05-04T02:17:24.672Z,10.55
2023-05-04T02:19:52.226Z,10.62
2023-05-04T02:22:19.689Z,10.37
2023-05-04T02:24:47.043Z,10.26
2023-05-04T02:27:14.493Z,10.16
2023-05-04T02:29:42.045Z,10.26
2023-05-04T02:32:09.440Z,10.20
2023-05-04T02:34:37.175Z,10.14
2023-05-04T02:37:07.100Z,10.21
2023-05-04T02:39:34.961Z,10.36
2023-05-04T02:42:03.151Z,10.31
2023-05-04T02:44:30.576Z,10.18
2023-05-04T02:46:58.287Z,10.39
2023-05-04T02:49:25.710Z,10.41
2023-05-04T02:51:53.150Z,10.14
2023-05-04T02:54:20.539Z,9.97
2023-05-04T02:56:48.002Z,9.92
2023-05-04T02:59:15.468Z,9.94
2023-05-04T03:01:42.921Z,10.06
2023-05-04T03:04:10.355Z,10.06
2023-05-04T03:06:38.217Z,9.96
2023-05-04T03:09:05.714Z,10.07
2023-05-04T03:11:33.079Z,9.99
2023-05-04T03:14:01.176Z,9.93
2023-05-04T03:16:28.777Z,9.98
2023-05-04T03:18:59.183Z,10.10
2023-05-04T03:21:26.618Z,10.11
2023-05-04T03:23:53.957Z,10.06
2023-05-04T03:26:21.612Z,10.12
2023-05-04T03:28:48.978Z,10.21
2023-05-04T03:31:16.376Z,10.32
2023-05-04T03:33:43.816Z,10.43
2023-05-04T03:36:11.615Z,10.46
2023-05-04T03:38:39.270Z,10.42
2023-05-04T03:41:07.658Z,10.58
2023-05-04T03:43:35.867Z,10.73
2023-05-04T03:46:03.266Z,10.69
2023-05-04T03:48:30.775Z,10.81
2023-05-04T03:50:58.209Z,10.85
2023-05-04T03:53:25.944Z,10.95
2023-05-04T03:55:53.490Z,11.02
2023-05-04T03:58:21.277Z,11.12
2023-05-04T04:00:48.670Z,11.12
2023-05-04T04:03:16.297Z,11.31
2023-05-04T04:05:44.080Z,11.28
2023-05-04T04:08:11.645Z,11.52
2023-05-04T04:10:39.019Z,11.47
2023-05-04T04:13:06.511Z,11.58
2023-05-04T04:15:33.988Z,11.87
2023-05-04T04:18:01.517Z,11.91
2023-05-04T04:20:28.922Z,12.07
2023-05-04T04:22:56.467Z,12.18
2023-05-04T04:25:24.538Z,12.18
2023-05-04T04:27:52.594Z,12.29
2023-05-04T04:30:20.042Z,12.20
2023-05-04T04:32:47.791Z,12.25
2023-05-04T04:35:15.763Z,12.44
2023-05-04T04:37:43.159Z,12.52
2023-05-04T04:40:11.258Z,12.46
2023-05-04T04:42:38.711Z,12.69
2023-05-04T04:45:06.931Z,12.86
2023-05-04T04:47:34.657Z,12.99
2023-05-04T04:50:03.674Z,12.95
2023-05-04T04:52:33.374Z,13.26
2023-05-04T04:55:01.443Z,13.27
2023-05-04T04:57:31.177Z,13.36
2023-05-04T04:59:59.211Z,13.50
2023-05-04T05:02:28.405Z,13.69
2023-05-04T05:04:56.827Z,13.69
2023-05-04T05:07:24.268Z,13.79
2023-05-04T05:09:51.907Z,13.90
2023-05-04T05:12:19.269Z,13.98
2023-05-04T05:14:47.397Z,14.00
2023-05-04T05:17:14.795Z,14.14
2023-05-04T05:19:42.367Z,14.33
2023-05-04T05:22:10.066Z,14.39
2023-05-04T05:24:37.683Z,14.41
2023-05-04T05:27:05.022Z,14.42
2023-05-04T05:29:32.640Z,14.46
2023-05-04T05:31:59.971Z,14.43
2023-05-04T05:34:27.394Z,14.62
2023-05-04T05:36:54.778Z,14.71
2023-05-04T05:39:22.101Z,14.67
2023-05-04T05:41:49.437Z,14.77
2023-05-04T05:44:16.787Z,14.91
2023-05-04T05:46:44.270Z,15.01
2023-05-04T05:49:11.614Z,15.02
2023-05-04T05:51:39.003Z,15.27
2023-05-04T05:54:06.729Z,15.40
2023-05-04T05:56:34.627Z,15.54
2023-05-04T05:59:02.331Z,15.58
2023-05-04T06:01:29.888Z,15.64
2023-05-04T06:03:57.369Z,15.72
2023-05-04T06:06:24.914Z,15.84
2023-05-04T06:08:52.367Z,16.00
2023-05-04T06:11:21.568Z,16.04
2023-05-04T06:13:48.983Z,16.31
2023-05-04T06:16:16.436Z,16.51
2023-05-04T06:18:43.879Z,16.58
2023-05-04T06:21:11.547Z,16.67
2023-05-04T06:23:39.075Z,16.74
2023-05-04T06:26:07.937Z,17.09
2023-05-04T06:28:35.580Z,17.21
2023-05-04T06:31:03.868Z,17.43
2023-05-04T06:33:31.599Z,17.68
2023-05-04T06:35:59.032Z,17.55
2023-05-04T06:38:26.524Z,17.72
2023-05-04T06:40:54.180Z,17.87
2023-05-04T06:43:21.605Z,17.83
2023-05-04T06:45:49.084Z,17.87
2023-05-04T06:48:17.177Z,18.06
2023-05-04T06:50:45.464Z,18.13
2023-05-04T06:53:13.044Z,18.39
2023-05-04T06:55:40.408Z,18.44
2023-05-04T06:58:07.903Z,18.59
2023-05-04T07:00:35.556Z,18.67
2023-05-04T07:03:03.072Z,18.74
2023-05-04T07:05:34.202Z,19.02
2023-05-04T07:08:01.995Z,19.16
2023-05-04T07:10:30.118Z,19.15
2023-05-04T07:12:57.601Z,19.35
2023-05-04T07:15:25.146Z,19.42
2023-05-04T07:17:52.578Z,19.57
2023-05-04T07:20:24.324Z,19.55
2023-05-04T07:22:56.564Z,19.65
2023-05-04T07:25:28.098Z,19.75
2023-05-04T07:27:55.631Z,19.76
2023-05-04T07:30:23.026Z,19.72
2023-05-04T07:32:50.709Z,19.67
2023-05-04T07:35:18.210Z,19.95
2023-05-04T07:37:46.486Z,20.10
2023-05-04T07:40:17.098Z,19.89
2023-05-04T07:42:44.707Z,19.93
2023-05-04T07:45:12.216Z,20.19
2023-05-04T07:47:39.693Z,20.35
2023-05-04T07:50:08.248Z,20.64
2023-05-04T07:52:36.185Z,20.87
2023-05-04T07:55:03.882Z,20.91
2023-05-04T07:57:32.467Z,20.95
2023-05-04T07:59:59.889Z,21.04
2023-05-04T08:02:27.327Z,20.97
2023-05-04T08:04:54.925Z,21.00
2023-05-04T08:07:22.802Z,21.31
2023-05-04T08:09:50.395Z,21.66
2023-05-04T08:12:17.853Z,21.76
2023-05-04T08:14:47.218Z,21.67
2023-05-04T08:17:14.664Z,22.00
2023-05-04T08:19:42.043Z,21.86
2023-05-04T08:22:09.570Z,22.28
2023-05-04T08:24:37.722Z,22.18
2023-05-04T08:27:08.704Z,22.08
2023-05-04T08:29:37.804Z,22.13
2023-05-04T08:32:06.176Z,22.22
2023-05-04T08:34:34.205Z,22.28
2023-05-04T08:37:02.484Z,22.57
2023-05-04T08:39:30.648Z,22.74
2023-05-04T08:41:58.257Z,22.88
2023-05-04T08:44:26.409Z,22.90
2023-05-04T08:46:55.067Z,22.92
2023-05-04T08:49:24.106Z,23.07
2023-05-04T08:51:52.163Z,23.23
2023-05-04T08:54:21.631Z,23.46
2023-05-04T08:56:52.761Z,23.07
2023-05-04T08:59:22.309Z,23.05
2023-05-04T09:01:53.141Z,22.93
2023-05-04T09:04:21.036Z,23.07
2023-05-04T09:06:49.142Z,23.06
2023-05-04T09:09:17.047Z,23.22
2023-05-04T09:11:44.627Z,23.48
2023-05-04T09:14:11.942Z,23.71
2023-05-04T09:16:39.604Z,23.76
2023-05-04T09:19:18.680Z,23.74
2023-05-04T09:21:47.341Z,24.09
2023-05-04T09:24:25.771Z,23.96
2023-05-04T09:26:53.293Z,24.23
2023-05-04T09:29:22.353Z,24.31
2023-05-04T09:31:51.362Z,24.17
2023-05-04T09:34:22.493Z,24.70
2023-05-04T09:37:01.870Z,24.79
2023-05-04T09:39:30.592Z,24.86
2023-05-04T09:41:58.157Z,25.09
2023-05-04T09:44:29.515Z,25.05
2023-05-04T09:47:00.210Z,24.70
2023-05-04T09:49:34.975Z,25.16
2023-05-04T09:52:05.127Z,25.11
2023-05-04T09:54:36.415Z,25.04
2023-05-04T09:57:13.297Z,24.98
2023-05-04T09:59:42.881Z,25.33
2023-05-04T10:02:21.904Z,24.99
2023-05-04T10:04:52.353Z,25.14
2023-05-04T10:07:21.185Z,24.61
2023-05-04T10:09:49.947Z,24.74
2023-05-04T10:12:17.959Z,25.22
2023-05-04T10:14:47.270Z,24.87
2023-05-04T10:17:15.232Z,25.54
2023-05-04T10:20:04.984Z,25.54
2023-05-04T10:22:33.091Z,25.57
2023-05-04T10:25:37.739Z,25.65
2023-05-04T10:28:20.686Z,25.57
2023-05-04T10:30:48.222Z,25.99
2023-05-04T10:33:15.668Z,25.71
2023-05-04T10:35:53.534Z,26.19
2023-05-04T10:38:33.274Z,26.27
2023-05-04T10:41:01.749Z,25.95
2023-05-04T10:43:29.410Z,25.43
2023-05-04T10:45:57.787Z,25.38
2023-05-04T10:48:35.353Z,25.91
2023-05-04T10:51:02.820Z,25.55
2023-05-04T10:53:34.665Z,25.90
2023-05-04T10:56:02.136Z,25.77
2023-05-04T10:58:30.128Z,25.64
2023-05-04T11:00:57.677Z,25.71
2023-05-04T11:03:25.391Z,25.41
2023-05-04T11:05:54.876Z,25.60
2023-05-04T11:08:24.730Z,24.99
2023-05-04T11:11:06.981Z,24.85
2023-05-04T11:13:36.074Z,25.17
2023-05-04T11:16:03.671Z,25.19
2023-05-04T11:18:34.588Z,25.01
2023-05-04T11:21:02.633Z,25.18
2023-05-04T11:23:30.700Z,25.00
2023-05-04T11:25:58.204Z,25.51
2023-05-04T11:28:38.629Z,25.39
2023-05-04T11:31:13.849Z,25.53
2023-05-04T11:33:47.180Z,25.62
2023-05-04T11:36:14.948Z,25.82
2023-05-04T11:38:42.976Z,25.79
2023-05-04T11:41:10.484Z,25.70
2023-05-04T11:43:39.040Z,25.50
2023-05-04T11:46:07.855Z,25.83
2023-05-04T11:48:36.376Z,26.02
2023-05-04T11:51:05.578Z,26.04
2023-05-04T11:53:40.171Z,26.13
2023-05-04T11:56:11.345Z,26.34
2023-05-04T11:58:38.810Z,26.39
2023-05-04T12:01:06.185Z,26.95
2023-05-04T12:03:52.237Z,27.66
2023-05-04T12:06:32.311Z,28.07
2023-05-04T12:09:04.996Z,28.53
2023-05-04T12:11:32.992Z,27.71
2023-05-04T12:14:17.167Z,28.26
2023-05-04T12:16:54.957Z,28.64
2023-05-04T12:19:22.340Z,29.19
2023-05-04T12:21:52.333Z,28.64
2023-05-04T12:24:24.209Z,28.25
2023-05-04T12:26:51.736Z,29.09
2023-05-04T12:29:19.532Z,28.94
2023-05-04T12:31:47.457Z,28.52
2023-05-04T12:34:14.910Z,28.59
2023-05-04T12:36:42.451Z,29.00
2023-05-04T12:39:09.880Z,29.07
2023-05-04T12:41:37.663Z,29.19
2023-05-04T12:44:05.187Z,29.32
2023-05-04T12:46:33.344Z,28.86
2023-05-04T12:49:00.841Z,29.28
2023-05-04T12:51:28.411Z,30.46
2023-05-04T12:53:57.876Z,29.77
2023-05-04T12:56:25.870Z,30.41
2023-05-04T12:58:53.360Z,30.34
2023-05-04T13:01:20.959Z,30.13
2023-05-04T13:03:48.452Z,30.28
2023-05-04T13:06:16.061Z,30.36
2023-05-04T13:08:44.568Z,30.43
2023-05-04T13:11:11.930Z,30.78
2023-05-04T13:13:39.288Z,31.01
2023-05-04T13:16:06.817Z,30.63
2023-05-04T13:18:34.262Z,30.82
2023-05-04T13:21:01.786Z,30.88
2023-05-04T13:23:29.478Z,30.62
2023-05-04T13:25:57.125Z,30.88
2023-05-04T13:28:24.531Z,30.02
2023-05-04T13:30:52.252Z,30.62
2023-05-04T13:33:29.491Z,30.88
2023-05-04T13:36:02.205Z,31.26
2023-05-04T13:38:29.755Z,30.98
2023-05-04T13:40:58.725Z,30.17
2023-05-04T13:43:26.169Z,30.41
2023-05-04T13:45:53.750Z,30.11
2023-05-04T13:48:21.159Z,30.20
2023-05-04T13:50:48.829Z,29.96
2023-05-04T13:53:16.568Z,29.30
2023-05-04T13:55:44.952Z,28.74
2023-05-04T13:58:12.311Z,28.91
2023-05-04T14:00:39.795Z,28.48
2023-05-04T14:03:07.263Z,28.58
2023-05-04T14:05:35.721Z,27.67
2023-05-04T14:08:03.163Z,27.84
2023-05-04T14:10:30.920Z,27.19
2023-05-04T14:12:59.078Z,26.88
2023-05-04T14:15:27.640Z,26.53
2023-05-04T14:17:55.154Z,26.29
2023-05-04T14:20:22.561Z,25.70
2023-05-04T14:22:49.989Z,25.28
2023-05-04T14:25:17.310Z,25.39
2023-05-04T14:27:45.325Z,25.26
2023-05-04T14:30:13.078Z,25.13
2023-05-04T14:32:41.531Z,24.80
2023-05-04T14:35:10.909Z,24.68
2023-05-04T14:37:40.076Z,24.66
2023-05-04T14:40:09.833Z,24.50
2023-05-04T14:42:38.624Z,24.38
2023-05-04T14:45:08.214Z,24.17
2023-05-04T14:47:36.111Z,24.26
2023-05-04T14:50:05.131Z,24.12
2023-05-04T14:52:33.256Z,23.90
2023-05-04T14:55:00.775Z,24.01
2023-05-04T14:57:28.498Z,24.15
2023-05-04T14:59:55.926Z,24.01
2023-05-04T15:02:23.477Z,23.92
2023-05-04T15:04:51.036Z,24.03
2023-05-04T15:07:20.939Z,23.64
2023-05-04T15:09:48.784Z,23.61
2023-05-04T15:12:17.692Z,23.61
2023-05-04T15:14:46.361Z,23.46
2023-05-04T15:17:15.061Z,23.43
2023-05-04T15:19:43.725Z,23.29
2023-05-04T15:22:11.287Z,23.24
2023-05-04T15:24:38.730Z,23.03
2023-05-04T15:27:06.296Z,23.34
2023-05-04T15:29:33.784Z,23.14
2023-05-04T15:32:01.319Z,23.05
2023-05-04T15:34:29.375Z,22.94
2023-05-04T15:36:57.029Z,22.98
2023-05-04T15:39:24.476Z,22.80
2023-05-04T15:41:52.058Z,22.99
2023-05-04T15:44:21.103Z,22.86
2023-05-04T15:46:48.688Z,22.79
2023-05-04T15:49:16.094Z,22.82
2023-05-04T15:51:43.616Z,22.62
2023-05-04T15:54:11.091Z,22.42
2023-05-04T15:56:38.745Z,22.38
2023-05-04T15:59:06.663Z,22.36
2023-05-04T16:01:34.625Z,22.30
2023-05-04T16:04:02.245Z,22.16
2023-05-04T16:06:31.454Z,22.10
2023-05-04T16:08:58.914Z,21.88
2023-05-04T16:11:26.456Z,21.85
2023-05-04T16:13:54.437Z,21.83
2023-05-04T16:16:22.041Z,21.46
2023-05-04T16:18:49.451Z,21.54
2023-05-04T16:21:16.869Z,21.41
2023-05-04T16:23:44.261Z,21.27
2023-05-04T16:26:11.710Z,21.01
2023-05-04T16:28:40.669Z,20.96
2023-05-04T16:31:10.357Z,20.65
2023-05-04T16:33:39.294Z,20.49
2023-05-04T16:36:07.114Z,20.39
2023-05-04T16:38:34.978Z,20.41
2023-05-04T16:41:02.473Z,20.28
2023-05-04T16:43:30.014Z,20.07
2023-05-04T16:45:57.764Z,20.08
2023-05-04T16:48:25.543Z,20.19
2023-05-04T16:50:52.844Z,20.12
2023-05-04T16:53:20.981Z,19.89
2023-05-04T16:55:48.491Z,19.96
2023-05-04T16:58:15.972Z,20.05
2023-05-04T17:00:43.600Z,19.88
2023-05-04T17:03:11.099Z,19.83
2023-05-04T17:05:38.835Z,19.68
2023-05-04T17:08:06.325Z,19.46
2023-05-04T17:10:33.778Z,19.41
2023-05-04T17:13:02.571Z,19.29
2023-05-04T17:15:30.569Z,19.16
2023-05-04T17:17:58.015Z,19.19
2023-05-04T17:20:30.081Z,19.19
2023-05-04T17:22:58.807Z,19.08
2023-05-04T17:25:27.020Z,19.03
2023-05-04T17:27:55.001Z,18.95
2023-05-04T17:30:22.498Z,18.84
2023-05-04T17:32:50.135Z,18.87
2023-05-04T17:35:25.445Z,18.78
2023-05-04T17:37:58.782Z,18.96
2023-05-04T17:40:27.937Z,18.78
2023-05-04T17:42:56.551Z,18.41
2023-05-04T17:45:24.203Z,18.54
2023-05-04T17:47:52.563Z,18.43
2023-05-04T17:50:21.303Z,18.28
2023-05-04T17:52:53.802Z,18.25
2023-05-04T17:55:24.464Z,18.33
2023-05-04T17:57:53.883Z,18.17
2023-05-04T18:00:21.884Z,18.12
2023-05-04T18:02:49.611Z,18.12
2023-05-04T18:05:17.033Z,18.06
2023-05-04T18:07:44.726Z,18.14
2023-05-04T18:10:12.192Z,18.16
2023-05-04T18:12:40.018Z,17.98
2023-05-04T18:15:09.170Z,17.84
2023-05-04T18:17:38.307Z,17.70
2023-05-04T18:20:08.361Z,17.54
2023-05-04T18:22:37.379Z,17.57
2023-05-04T18:25:05.177Z,17.54
2023-05-04T18:27:34.057Z,17.51
2023-05-04T18:30:03.447Z,17.58
2023-05-04T18:32:31.340Z,17.53
2023-05-04T18:34:58.855Z,17.70
2023-05-04T18:37:26.744Z,17.64
2023-05-04T18:39:54.436Z,17.61
2023-05-04T18:42:21.936Z,17.50
2023-05-04T18:44:51.640Z,17.31
2023-05-04T18:47:19.050Z,17.33
2023-05-04T18:49:53.185Z,17.31
2023-05-04T18:52:21.676Z,17.14
2023-05-04T18:54:49.741Z,17.15
2023-05-04T18:57:17.382Z,17.13
2023-05-04T18:59:44.815Z,17.15
2023-05-04T19:02:12.740Z,17.23
2023-05-04T19:04:40.281Z,17.25
2023-05-04T19:07:09.937Z,17.23
2023-05-04T19:09:37.615Z,17.17
2023-05-04T19:12:05.281Z,17.07
2023-05-04T19:14:33.734Z,17.09
2023-05-04T19:17:02.419Z,17.05
2023-05-04T19:19:30.612Z,16.94
2023-05-04T19:21:58.696Z,16.97
2023-05-04T19:24:26.067Z,16.95
2023-05-04T19:26:53.573Z,16.89
2023-05-04T19:29:20.900Z,16.89
2023-05-04T19:31:48.506Z,16.85
2023-05-04T19:34:17.670Z,16.79
2023-05-04T19:36:45.449Z,16.78
2023-05-04T19:39:13.505Z,16.78
2023-05-04T19:41:41.027Z,16.57
2023-05-04T19:44:10.296Z,16.51
2023-05-04T19:46:38.063Z,16.54
2023-05-04T19:49:05.525Z,16.60
2023-05-04T19:51:33.122Z,16.58
2023-05-04T19:54:00.680Z,16.51
2023-05-04T19:56:28.257Z,16.33
2023-05-04T19:58:55.891Z,16.21
2023-05-04T20:01:23.331Z,16.18
2023-05-04T20:03:50.917Z,16.09
2023-05-04T20:06:18.409Z,16.02
2023-05-04T20:08:46.049Z,15.97
2023-05-04T20:11:13.994Z,15.86
2023-05-04T20:13:42.858Z,15.77
2023-05-04T20:16:10.461Z,15.70
2023-05-04T20:18:38.171Z,15.70
2023-05-04T20:21:05.886Z,15.56
2023-05-04T20:23:33.764Z,15.48
2023-05-04T20:26:02.176Z,15.48
2023-05-04T20:28:32.688Z,15.42
2023-05-04T20:31:00.510Z,15.42
2023-05-04T20:33:28.111Z,15.36
2023-05-04T20:35:55.615Z,15.33
2023-05-04T20:38:23.256Z,15.28
2023-05-04T20:40:52.479Z,15.34
2023-05-04T20:43:21.907Z,15.29
2023-05-04T20:45:49.730Z,15.14
2023-05-04T20:48:17.477Z,15.06
2023-05-04T20:50:44.932Z,15.15
2023-05-04T20:53:12.768Z,15.16
2023-05-04T20:55:40.677Z,15.15
2023-05-04T20:58:08.431Z,15.11
2023-05-04T21:00:36.495Z,15.07
2023-05-04T21:03:04.461Z,15.07
2023-05-04T21:05:32.187Z,15.03
2023-05-04T21:08:01.166Z,15.03
2023-05-04T21:10:28.689Z,15.18
2023-05-04T21:12:57.645Z,14.90
2023-05-04T21:15:25.006Z,14.96
2023-05-04T21:17:53.328Z,14.92
2023-05-04T21:20:21.207Z,14.80
2023-05-04T21:22:48.756Z,14.73
2023-05-04T21:25:16.169Z,14.66
2023-05-04T21:27:44.391Z,14.81
2023-05-04T21:30:12.210Z,14.67
2023-05-04T21:32:39.644Z,14.67
2023-05-04T21:35:07.688Z,14.69
2023-05-04T21:37:35.254Z,14.80
2023-05-04T21:40:02.720Z,14.75
2023-05-04T21:42:30.241Z,15.00
2023-05-04T21:44:57.839Z,14.88
2023-05-04T21:47:26.369Z,14.92
2023-05-04T21:49:54.804Z,15.01
2023-05-04T21:52:22.628Z,14.98
2023-05-04T21:54:50.197Z,14.80
2023-05-04T21:57:17.650Z,14.68
2023-05-04T21:59:49.590Z,14.60
2023-05-04T22:02:17.317Z,14.65
2023-05-04T22:04:44.905Z,14.60
2023-05-04T22:07:12.403Z,14.58
2023-05-04T22:09:39.777Z,14.50
2023-05-04T22:12:07.887Z,14.52
2023-05-04T22:14:35.380Z,14.52
2023-05-04T22:17:02.796Z,14.46
2023-05-04T22:19:30.786Z,14.35
2023-05-04T22:21:58.239Z,14.40
2023-05-04T22:24:26.946Z,14.38
2023-05-04T22:26:54.266Z,14.45
2023-05-04T22:29:21.656Z,14.45
2023-05-04T22:31:49.092Z,14.50
2023-05-04T22:34:16.718Z,14.45
2023-05-04T22:36:44.118Z,14.31
2023-05-04T22:39:11.440Z,14.34
2023-05-04T22:41:38.899Z,14.24
2023-05-04T22:44:07.427Z,14.19
2023-05-04T22:46:35.594Z,14.20
2023-05-04T22:49:03.041Z,14.21
2023-05-04T22:51:30.902Z,14.12
2023-05-04T22:53:58.404Z,14.09
2023-05-04T22:56:26.028Z,14.04
2023-05-04T22:58:53.408Z,14.02
2023-05-04T23:01:20.831Z,14.01
2023-05-04T23:03:48.960Z,14.00
2023-05-04T23:06:16.390Z,13.91
2023-05-04T23:08:45.446Z,13.89
2023-05-04T23:11:13.033Z,13.71
2023-05-04T23:13:40.377Z,13.69
2023-05-04T23:16:08.045Z,13.88
2023-05-04T23:18:35.744Z,13.81
2023-05-04T23:21:03.398Z,13.70
2023-05-04T23:23:31.281Z,13.60
2023-05-04T23:25:58.652Z,13.50
2023-05-04T23:28:26.248Z,13.63
2023-05-04T23:30:55.767Z,13.63
2023-05-04T23:33:23.386Z,13.57
2023-05-04T23:35:54.714Z,13.68
2023-05-04T23:38:22.959Z,13.61
2023-05-04T23:40:51.858Z,13.70
2023-05-04T23:43:19.524Z,13.61
2023-05-04T23:45:46.990Z,13.62
2023-05-04T23:48:14.654Z,13.60
2023-05-04T23:50:52.849Z,13.46
2023-05-04T23:53:20.670Z,13.38
2023-05-04T23:55:56.140Z,13.48
2023-05-04T23:58:23.506Z,13.43
